KPHT/PHT METAR and TAF weather

Enter ICAO airport designator
Station Type Date Time Source
KPHT METAR 2020/01/20 18:55 UTC NOAA

KPHT 201855Z AUTO 34003KT 10SM OVC019 M05/M09 A3056 RMK A01


Station Type Date Time Source
KPHT Decoded METAR 2020/01/20 18:55 UTC NOAA

Station name not available
Jan 20, 2020 - 01:55 PM EST / 2020.01.20 1855 UTC
Wind: from the NNW (340 degrees) at 3 MPH (3 KT):0
Visibility: 10 mile(s):0
Sky conditions: overcast
Temperature: 23 F (-5 C)
Dew Point: 15 F (-9 C)
Relative Humidity: 73%
Pressure (altimeter): 30.56 in. Hg (1034 hPa)
ob: KPHT 201855Z AUTO 34003KT 10SM OVC019 M05/M09 A3056 RMK A01
cycle: 19

Station Type Date Time Source
KPHT TAF UTC NOAA

Error!

Example: see airport list